メインページ
METAR-TAF:

METAR-TAF

空港 :

Chibougamau, ケベック州, カナダ

緯度: 49-46N, 経度: 074-32W, 海抜: 388m

現時点の気象観測

当レポートは16分前の20:10(UTC)に作成
南/南西の風 7kt
気温 -13°C
湿度 78%
気圧 1020 hPa
視程: 14.5km
高度2600ftの千切れ雲あり
高度9500ftの曇り
小雪

METAR: CYMT 072010Z AUTO 20007KT 9SM -SN BKN026 OVC095 M13/M16 A3012 RMK SLP235

時間: 15:26 (20:26 UTC)

予報

当レポートは2時間48分前の17:38(UTC)に作成
予報は07日の 18時(UTC)から 08日の 01時(UTC)まで有効
西/北西の風 5kt
視程: 10km
高度4000ftの曇り
小雪
07日の 18時(UTC)から 08日の 01時(UTC)まで一時的に
視程: 6.4km
高度900ftの千切れ雲あり
高度1500ftの曇り
小雪
07日の 18時(UTC)から 07日の 19時(UTC)まで徐々に
南西の風 10kt、最大20ktの突風を伴う

TAF: CYMT 071738Z 0718/0801 29005KT P6SM -SN OVC040 TEMPO 0718/0801 4SM -SN BKN009 OVC015 BECMG 0718/0719 23010G20KT RMK FCST BASED ON AUTO OBS. NXT FCST WILL BE ISSUED AT 081245Z

4,000以上の空港の気象観測と天気予報(METAR報とTAF報)

利用可能な観測所は地図上に黄色い丸と赤い丸で示す。

丸の上にカーソルを重ねると観測所名を参照できる。

次にクリックすると気象観測と天気予報を参照できる。

マップの切り替え:黒色「×」印の緑ボタンをクリックして拡大、「-」印の緑ボタンをクリックして縮小、緑色の三角印をクリックして隣りの地図に切り替え


METAR-TAF: